Time;durP1;ratioP1;P1;durP2;ratioP2;P2;SDS_P1;SDS_P2;PMS_P1;PMS_P2;Temp;Humidity;BMP_temperature;BMP_pressure;BME280_temperature;BME280_humidity;BME280_pressure;Samples;Min_cycle;Max_cycle;Signal;HPM_P1;HPM_P2
2022/09/16 00:01:36;;;;;;;2.30;2.00;;;13.60;30.50;;;;;;5080168;28;20486;-78
2022/09/16 00:04:03;;;;;;;2.40;1.30;;;13.30;10.10;;;;;;5078244;28;20893;-78
2022/09/16 00:06:30;;;;;;;3.13;1.40;;;13.30;1.00;;;;;;5077084;28;20480;-78
2022/09/16 00:08:59;;;;;;;2.77;1.53;;;13.30;99.90;;;;;;5076450;28;20437;-78
2022/09/16 00:11:27;;;;;;;1.47;1.37;;;13.30;1.00;;;;;;5076460;28;20536;-78
2022/09/16 00:13:55;;;;;;;2.50;1.60;;;13.30;99.90;;;;;;5076309;28;20502;-78
2022/09/16 00:16:25;;;;;;;1.93;1.13;;;13.20;1.00;;;;;;5078270;28;20444;-78
2022/09/16 00:18:54;;;;;;;6.40;1.70;;;13.20;99.90;;;;;;5079448;28;20480;-78
2022/09/16 00:21:21;;;;;;;2.17;1.40;;;13.20;1.00;;;;;;5079261;28;20498;-78
2022/09/16 00:23:48;;;;;;;2.17;1.53;;;13.10;1.00;;;;;;5076818;28;20510;-79
2022/09/16 00:26:15;;;;;;;2.70;1.43;;;13.10;1.00;;;;;;5076814;28;20456;-78
2022/09/16 00:28:42;;;;;;;1.87;1.20;;;13.00;1.00;;;;;;5075610;28;20807;-78
2022/09/16 00:31:10;;;;;;;7.07;1.80;;;13.00;1.00;;;;;;5076660;28;20469;-78
2022/09/16 00:33:37;;;;;;;1.87;1.37;;;12.90;1.00;;;;;;5079054;28;20441;-78
2022/09/16 00:36:08;;;;;;;2.60;1.73;;;12.90;99.90;;;;;;5076474;28;20448;-78
2022/09/16 00:38:35;;;;;;;1.63;1.50;;;12.80;99.90;;;;;;5080706;28;20473;-78
2022/09/16 00:41:02;;;;;;;1.70;1.60;;;12.80;99.90;;;;;;5080916;28;20468;-78
2022/09/16 00:43:45;;;;;;;1.47;1.20;;;12.90;99.90;;;;;;5081186;28;20473;-78
2022/09/16 00:46:14;;;;;;;1.90;1.07;;;12.80;89.50;;;;;;5076667;28;20436;-78
2022/09/16 00:48:41;;;;;;;2.50;1.40;;;;;;;;;;5085633;28;20464;-78
2022/09/16 00:51:10;;;;;;;2.47;1.80;;;12.90;99.90;;;;;;5075168;28;20530;-78
2022/09/16 00:53:40;;;;;;;4.10;1.67;;;12.90;99.90;;;;;;5075762;28;20498;-77
2022/09/16 00:56:11;;;;;;;3.53;1.10;;;12.90;99.90;;;;;;5075533;28;20472;-77
2022/09/16 00:58:44;;;;;;;1.60;1.40;;;12.90;99.90;;;;;;5075919;28;20535;-78
2022/09/16 01:01:10;;;;;;;1.77;1.60;;;12.90;1.00;;;;;;5078174;28;20472;-78
2022/09/16 01:03:44;;;;;;;1.60;1.30;;;12.80;99.90;;;;;;5080738;28;20860;-77
2022/09/16 01:06:13;;;;;;;7.53;1.40;;;12.80;1.00;;;;;;5077562;28;20903;-78
2022/09/16 01:08:41;;;;;;;3.33;1.70;;;12.80;1.00;;;;;;5074642;28;20480;-77
2022/09/16 01:11:08;;;;;;;2.50;1.30;;;12.80;1.00;;;;;;5075229;28;20515;-77
2022/09/16 01:13:35;;;;;;;3.13;2.00;;;12.80;1.00;;;;;;5075027;28;20478;-78
2022/09/16 01:16:09;;;;;;;2.30;1.43;;;12.80;1.00;;;;;;5080483;28;20453;-77
2022/09/16 01:18:45;;;;;;;3.40;1.43;;;12.70;98.90;;;;;;5077873;28;20461;-78
2022/09/16 01:21:28;;;;;;;1.83;1.53;;;12.60;99.90;;;;;;5078147;28;20467;-77
2022/09/16 01:24:27;;;;;;;4.57;1.97;;;12.70;99.90;;;;;;5080472;28;20425;-77
2022/09/16 01:27:20;;;;;;;1.57;1.30;;;12.70;99.90;;;;;;5075874;28;20432;-78
2022/09/16 01:30:14;;;;;;;7.67;1.50;;;12.50;99.90;;;;;;5075044;28;20841;-78
2022/09/16 01:33:00;;;;;;;3.20;2.10;;;12.60;99.90;;;;;;5074796;28;20451;-78
2022/09/16 01:35:47;;;;;;;4.37;2.00;;;12.50;99.90;;;;;;5074419;28;20441;-78
2022/09/16 01:38:28;;;;;;;1.83;1.40;;;12.50;99.90;;;;;;5074589;28;20479;-78
2022/09/16 01:41:04;;;;;;;3.13;1.50;;;12.50;99.90;;;;;;5075975;28;20510;-78
2022/09/16 01:43:40;;;;;;;2.83;2.10;;;12.40;99.90;;;;;;5076899;28;20923;-78
2022/09/16 01:46:16;;;;;;;1.70;1.50;;;12.40;99.90;;;;;;5075345;28;20429;-78
2022/09/16 01:48:53;;;;;;;2.87;2.20;;;12.40;99.90;;;;;;5074866;28;20479;-78
2022/09/16 01:51:23;;;;;;;1.53;1.33;;;12.40;99.90;;;;;;5085472;22;20545;-75
2022/09/16 01:53:55;;;;;;;4.50;1.63;;;12.40;99.90;;;;;;5073743;28;20844;-74
2022/09/16 01:56:27;;;;;;;3.43;1.90;;;12.30;99.90;;;;;;5074032;28;20462;-74
2022/09/16 01:58:58;;;;;;;2.40;1.67;;;12.40;99.90;;;;;;5073589;28;20465;-74
2022/09/16 02:01:33;;;;;;;4.10;1.90;;;12.50;99.90;;;;;;5073464;28;20461;-74
2022/09/16 02:04:06;;;;;;;4.23;1.67;;;12.40;99.90;;;;;;5073925;28;20950;-74
2022/09/16 02:06:34;;;;;;;3.57;1.47;;;12.30;99.90;;;;;;5073718;28;20519;-74
2022/09/16 02:09:06;;;;;;;4.30;1.80;;;12.40;99.90;;;;;;5073899;28;20516;-74
2022/09/16 02:11:33;;;;;;;4.97;2.03;;;12.40;99.90;;;;;;5073550;28;20456;-74
2022/09/16 02:14:06;;;;;;;2.00;1.53;;;12.40;99.90;;;;;;5073407;28;20487;-74
2022/09/16 02:16:37;;;;;;;2.60;1.60;;;12.40;99.90;;;;;;5073511;28;20429;-74
2022/09/16 02:19:09;;;;;;;3.93;1.90;;;12.40;99.90;;;;;;5073885;28;20888;-74
2022/09/16 02:21:39;;;;;;;2.93;1.73;;;12.20;99.90;;;;;;5073977;28;20460;-74
2022/09/16 02:24:11;;;;;;;2.27;1.70;;;12.30;99.90;;;;;;5073133;28;20502;-74
2022/09/16 02:26:41;;;;;;;3.77;1.90;;;12.40;99.90;;;;;;5073559;28;20429;-74
2022/09/16 02:29:13;;;;;;;5.60;1.80;;;12.40;99.90;;;;;;5073370;28;20465;-75
2022/09/16 02:31:42;;;;;;;5.67;2.47;;;12.30;99.90;;;;;;5073217;28;20475;-75
2022/09/16 02:34:14;;;;;;;2.07;1.90;;;12.30;99.90;;;;;;5073160;28;20491;-74
2022/09/16 02:36:45;;;;;;;2.93;1.90;;;12.20;99.90;;;;;;5073169;28;20453;-74
2022/09/16 02:39:16;;;;;;;4.70;2.10;;;12.10;99.90;;;;;;5073278;28;20478;-74
2022/09/16 02:41:43;;;;;;;2.60;1.60;;;12.20;99.90;;;;;;5073463;28;20464;-75
2022/09/16 02:44:11;;;;;;;4.57;2.30;;;12.10;99.90;;;;;;5073276;28;20481;-74
2022/09/16 02:46:42;;;;;;;7.47;1.70;;;12.10;99.90;;;;;;5073659;28;20851;-75
2022/09/16 02:49:18;;;;;;;5.37;2.43;;;12.00;99.90;;;;;;5072913;28;20529;-74
2022/09/16 02:51:53;;;;;;;3.60;1.93;;;12.00;99.90;;;;;;5075088;28;20472;-74
2022/09/16 02:54:25;;;;;;;8.33;2.00;;;12.00;99.90;;;;;;5077204;28;20486;-74
2022/09/16 02:56:55;;;;;;;2.90;1.97;;;12.00;99.90;;;;;;5077398;28;20797;-74
2022/09/16 02:59:24;;;;;;;5.20;2.37;;;12.00;99.90;;;;;;5077081;28;20429;-74
2022/09/16 03:01:50;;;;;;;2.70;1.87;;;12.00;99.90;;;;;;5076904;28;20530;-74
2022/09/16 03:04:20;;;;;;;3.00;2.17;;;12.10;99.90;;;;;;5076648;28;20440;-74
2022/09/16 03:06:48;;;;;;;3.83;2.40;;;12.10;99.90;;;;;;5076856;28;20482;-75
2022/09/16 03:09:17;;;;;;;2.93;1.77;;;12.10;99.90;;;;;;5076716;28;20480;-74
2022/09/16 03:11:59;;;;;;;2.70;2.20;;;12.00;99.90;;;;;;5076810;28;20482;-74
2022/09/16 03:14:49;;;;;;;2.97;2.03;;;12.00;99.90;;;;;;5076971;28;20432;-76
2022/09/16 03:17:34;;;;;;;2.47;1.97;;;12.00;99.90;;;;;;5077061;28;20433;-75
2022/09/16 03:20:14;;;;;;;3.53;2.30;;;12.00;99.90;;;;;;5076918;28;20436;-75
2022/09/16 03:22:48;;;;;;;3.37;1.83;;;12.00;99.90;;;;;;5076583;28;20447;-74
2022/09/16 03:25:25;;;;;;;3.63;2.20;;;12.00;99.90;;;;;;5076698;28;20870;-74
2022/09/16 03:28:00;;;;;;;4.97;2.87;;;12.00;99.90;;;;;;5076523;28;20432;-74
2022/09/16 03:30:29;;;;;;;4.07;2.23;;;12.00;99.90;;;;;;5076658;28;20537;-75
2022/09/16 03:33:01;;;;;;;3.03;2.10;;;12.00;99.90;;;;;;5076340;28;20447;-75
2022/09/16 03:35:33;;;;;;;5.80;2.47;;;12.00;99.90;;;;;;5076431;28;20444;-75
2022/09/16 03:38:01;;;;;;;4.20;2.33;;;11.90;99.90;;;;;;5076565;28;20433;-75
2022/09/16 03:40:29;;;;;;;2.90;2.60;;;12.10;99.90;;;;;;5076302;28;20813;-75
2022/09/16 03:42:57;;;;;;;2.70;2.50;;;12.00;99.90;;;;;;5076490;28;20476;-75
2022/09/16 03:45:24;;;;;;;7.00;4.67;;;12.00;99.90;;;;;;5076230;28;20802;-75
2022/09/16 03:47:53;;;;;;;7.07;3.13;;;12.00;99.90;;;;;;5076230;28;20444;-75
2022/09/16 03:50:21;;;;;;;5.13;2.77;;;11.80;99.90;;;;;;5075868;28;20530;-75
2022/09/16 03:52:49;;;;;;;4.90;2.90;;;12.00;99.90;;;;;;5076191;28;20433;-75
2022/09/16 03:55:16;;;;;;;5.17;3.23;;;12.00;99.90;;;;;;5076019;28;20444;-75
2022/09/16 03:57:43;;;;;;;4.30;3.17;;;12.10;99.90;;;;;;5076110;28;20456;-75
2022/09/16 04:00:11;;;;;;;11.40;4.47;;;12.10;99.90;;;;;;5076037;28;20470;-75
2022/09/16 04:02:38;;;;;;;3.40;3.17;;;12.10;99.90;;;;;;5075104;28;20441;-75
2022/09/16 04:05:07;;;;;;;5.57;3.17;;;12.10;99.90;;;;;;5075857;28;20862;-75
2022/09/16 04:07:33;;;;;;;3.60;3.00;;;12.10;99.90;;;;;;5075566;28;20993;-75
2022/09/16 04:10:01;;;;;;;5.17;3.57;;;12.10;99.90;;;;;;5075684;28;20480;-75
2022/09/16 04:12:28;;;;;;;7.90;4.47;;;12.10;99.90;;;;;;5076003;28;20475;-75
2022/09/16 04:14:55;;;;;;;3.40;2.53;;;12.20;99.90;;;;;;5075772;28;20471;-76
2022/09/16 04:17:22;;;;;;;4.17;3.33;;;12.20;99.90;;;;;;5075964;28;20571;-76
2022/09/16 04:19:50;;;;;;;6.57;3.00;;;12.20;99.90;;;;;;5075725;28;20487;-75
2022/09/16 04:22:16;;;;;;;6.55;2.97;;;12.20;99.90;;;;;;5075397;28;20441;-75
2022/09/16 04:24:43;;;;;;;5.80;4.33;;;12.20;99.90;;;;;;5076042;28;20275;-74
2022/09/16 04:27:11;;;;;;;3.60;3.30;;;12.10;99.90;;;;;;5075932;28;20445;-74
2022/09/16 04:29:38;;;;;;;6.80;3.10;;;12.10;99.90;;;;;;5075795;28;20590;-74
2022/09/16 04:32:04;;;;;;;5.30;3.90;;;12.10;99.90;;;;;;5075093;28;20464;-74
2022/09/16 04:34:32;;;;;;;6.57;4.87;;;12.00;99.90;;;;;;5075656;28;20449;-74
2022/09/16 04:36:59;;;;;;;4.30;3.63;;;12.10;99.90;;;;;;5076472;28;20579;-75
2022/09/16 04:39:25;;;;;;;3.87;3.47;;;12.10;99.90;;;;;;5075695;28;20947;-76
2022/09/16 04:41:52;;;;;;;4.53;3.63;;;12.10;99.90;;;;;;5075669;28;20438;-75
2022/09/16 04:44:20;;;;;;;5.63;3.80;;;12.00;99.90;;;;;;5076329;28;20942;-76
2022/09/16 04:46:47;;;;;;;8.00;4.10;;;12.00;99.90;;;;;;5076599;28;20448;-75
2022/09/16 04:49:14;;;;;;;8.50;4.17;;;12.00;99.90;;;;;;5075070;28;20448;-75
2022/09/16 04:51:41;;;;;;;8.30;3.40;;;12.00;99.90;;;;;;5074876;28;20496;-74
2022/09/16 04:54:08;;;;;;;4.73;3.30;;;11.90;99.90;;;;;;5074890;28;20503;-74
2022/09/16 04:56:35;;;;;;;6.60;3.77;;;11.90;99.90;;;;;;5074941;28;20449;-73
2022/09/16 04:59:04;;;;;;;4.00;3.47;;;11.80;99.90;;;;;;5075257;28;20453;-75
2022/09/16 05:01:33;;;;;;;5.07;2.77;;;11.80;99.90;;;;;;5075050;28;20467;-75
2022/09/16 05:04:02;;;;;;;4.33;2.87;;;11.80;99.90;;;;;;5074799;28;20494;-75
2022/09/16 05:06:31;;;;;;;4.23;3.77;;;11.80;99.90;;;;;;5075013;28;20866;-75
2022/09/16 05:08:59;;;;;;;5.40;4.00;;;11.80;99.90;;;;;;5075085;28;20863;-75
2022/09/16 05:11:28;;;;;;;10.43;4.17;;;11.90;99.90;;;;;;5074733;28;20484;-75
2022/09/16 05:13:57;;;;;;;2.30;2.10;;;11.90;99.90;;;;;;5074830;28;20490;-75
2022/09/16 05:16:24;;;;;;;5.83;2.70;;;11.80;99.90;;;;;;5074623;28;20514;-74
2022/09/16 05:18:54;;;;;;;4.83;2.80;;;11.80;99.90;;;;;;5074551;28;20448;-76
2022/09/16 05:21:22;;;;;;;4.20;2.90;;;11.90;99.90;;;;;;5074639;28;20468;-75
2022/09/16 05:23:49;;;;;;;12.00;2.83;;;11.80;99.90;;;;;;5074917;28;20453;-75
2022/09/16 05:26:18;;;;;;;4.83;2.80;;;11.90;99.90;;;;;;5074381;28;20459;-75
2022/09/16 05:28:45;;;;;;;5.93;3.07;;;11.90;99.90;;;;;;5074467;28;20445;-75
2022/09/16 05:31:14;;;;;;;5.90;2.80;;;11.80;99.90;;;;;;5074715;28;20487;-75
2022/09/16 05:33:43;;;;;;;4.90;2.40;;;11.90;99.90;;;;;;5074265;28;20440;-75
2022/09/16 05:36:14;;;;;;;6.93;2.50;;;11.80;99.90;;;;;;5074615;28;20445;-75
2022/09/16 05:38:42;;;;;;;7.10;3.10;;;11.80;99.90;;;;;;5074530;28;20915;-75
2022/09/16 05:41:09;;;;;;;6.30;2.57;;;11.90;99.90;;;;;;5073986;28;20515;-75
2022/09/16 05:43:37;;;;;;;5.23;2.40;;;11.90;99.90;;;;;;5074090;28;20989;-75
2022/09/16 05:46:05;;;;;;;5.50;3.40;;;12.00;99.90;;;;;;5073499;28;20449;-76
2022/09/16 05:48:32;;;;;;;2.70;2.20;;;12.00;99.90;;;;;;5073421;28;20457;-75
2022/09/16 05:51:01;;;;;;;6.93;2.97;;;12.00;99.90;;;;;;5073415;28;20484;-75
2022/09/16 05:53:30;;;;;;;5.53;2.70;;;12.00;99.90;;;;;;5073631;28;20437;-75
2022/09/16 05:55:58;;;;;;;6.03;3.40;;;12.00;99.90;;;;;;5073469;28;20449;-75
2022/09/16 05:58:26;;;;;;;4.33;2.60;;;12.10;99.90;;;;;;5073663;28;20798;-75
2022/09/16 06:00:58;;;;;;;4.53;2.50;;;12.00;99.90;;;;;;5073382;28;20472;-75
2022/09/16 06:03:25;;;;;;;4.10;2.53;;;12.00;99.90;;;;;;5073962;28;20433;-76
2022/09/16 06:05:52;;;;;;;3.97;2.70;;;12.00;99.90;;;;;;5073266;28;20487;-76
2022/09/16 06:08:19;;;;;;;7.07;4.67;;;12.10;99.90;;;;;;5073600;28;20855;-75
2022/09/16 06:10:47;;;;;;;4.33;3.03;;;12.20;99.90;;;;;;5073290;28;20482;-75
2022/09/16 06:13:14;;;;;;;18.47;7.43;;;12.30;99.90;;;;;;5073483;28;20455;-75
2022/09/16 06:15:49;;;;;;;19.53;8.00;;;12.30;99.90;;;;;;5073409;28;20445;-76
2022/09/16 06:18:16;;;;;;;20.20;9.93;;;12.30;99.90;;;;;;5073456;28;20429;-75
2022/09/16 06:20:42;;;;;;;33.97;19.07;;;12.30;99.90;;;;;;5073342;28;20811;-75
2022/09/16 06:23:09;;;;;;;34.07;17.83;;;12.40;99.90;;;;;;5073134;28;20947;-75
2022/09/16 06:25:35;;;;;;;19.80;11.07;;;12.40;99.90;;;;;;5072724;28;20519;-76
2022/09/16 06:28:04;;;;;;;33.60;19.20;;;12.50;99.90;;;;;;5073009;28;20452;-74
2022/09/16 06:30:30;;;;;;;22.60;14.37;;;12.50;99.90;;;;;;5072664;28;20534;-75
2022/09/16 06:32:57;;;;;;;8.93;6.50;;;12.50;99.90;;;;;;5073091;28;20445;-74
2022/09/16 06:35:24;;;;;;;8.73;7.40;;;12.50;99.90;;;;;;5072988;28;20967;-74
2022/09/16 06:37:50;;;;;;;11.57;7.90;;;12.60;99.90;;;;;;5073021;28;20502;-74
2022/09/16 06:40:17;;;;;;;6.43;5.10;;;12.80;99.90;;;;;;5073137;28;20510;-74
2022/09/16 06:42:44;;;;;;;12.30;7.50;;;12.60;99.90;;;;;;5073063;28;20522;-74
2022/09/16 06:45:12;;;;;;;11.67;9.00;;;12.60;99.90;;;;;;5073275;28;20446;-74
2022/09/16 06:47:39;;;;;;;6.17;4.20;;;12.60;99.90;;;;;;5072701;28;20460;-75
2022/09/16 06:50:06;;;;;;;6.23;4.97;;;12.70;31.10;;;;;;5072844;28;20451;-74
2022/09/16 06:52:32;;;;;;;10.90;8.83;;;12.70;1.00;;;;;;5072416;28;20512;-75
2022/09/16 06:55:00;;;;;;;5.70;4.50;;;12.70;1.00;;;;;;5072897;28;20494;-75
2022/09/16 06:57:26;;;;;;;6.70;2.90;;;12.80;1.00;;;;;;5072857;28;20453;-75
2022/09/16 06:59:53;;;;;;;7.33;2.47;;;12.90;1.00;;;;;;5072930;28;20494;-75
2022/09/16 07:02:21;;;;;;;3.03;2.17;;;13.00;1.00;;;;;;5073057;28;20456;-75
2022/09/16 07:04:48;;;;;;;2.17;2.07;;;12.90;1.00;;;;;;5073431;28;20441;-74
2022/09/16 07:07:14;;;;;;;4.10;2.37;;;13.00;1.00;;;;;;5072874;28;20456;-75
2022/09/16 07:09:41;;;;;;;3.60;2.70;;;13.00;99.90;;;;;;5072465;28;20445;-75
2022/09/16 07:12:08;;;;;;;8.63;2.50;;;13.10;99.90;;;;;;5072507;28;20492;-75
2022/09/16 07:14:35;;;;;;;3.60;2.73;;;13.20;99.90;;;;;;5072799;28;20452;-75
2022/09/16 07:17:02;;;;;;;10.43;2.60;;;13.20;1.00;;;;;;5072825;28;20445;-75
2022/09/16 07:19:30;;;;;;;2.73;2.40;;;13.30;47.80;;;;;;5073072;28;20447;-75
2022/09/16 07:21:57;;;;;;;3.03;2.37;;;13.30;99.90;;;;;;5072596;28;20468;-75
2022/09/16 07:24:23;;;;;;;5.60;2.70;;;13.30;99.90;;;;;;5072268;28;20947;-75
2022/09/16 07:26:50;;;;;;;2.80;2.23;;;13.30;1.00;;;;;;5072572;28;20520;-75
2022/09/16 07:29:19;;;;;;;7.93;2.30;;;13.40;1.00;;;;;;5072980;28;20531;-77
2022/09/16 07:31:46;;;;;;;3.20;2.50;;;13.30;99.90;;;;;;5072365;28;20459;-76
2022/09/16 07:34:13;;;;;;;7.20;2.63;;;13.50;40.20;;;;;;5072485;28;20483;-76
2022/09/16 07:36:44;;;;;;;7.40;2.73;;;13.50;99.90;;;;;;5072762;28;20436;-76
2022/09/16 07:39:12;;;;;;;6.97;2.83;;;13.60;1.00;;;;;;5075687;28;20474;-76
2022/09/16 07:41:40;;;;;;;4.67;2.30;;;13.50;1.00;;;;;;5076646;28;20582;-76
2022/09/16 07:44:09;;;;;;;4.40;2.87;;;13.50;99.90;;;;;;5077729;28;20453;-77
2022/09/16 07:46:37;;;;;;;4.10;2.27;;;13.60;1.00;;;;;;5076829;28;20560;-77
2022/09/16 07:49:05;;;;;;;3.27;1.83;;;13.50;1.00;;;;;;5077467;28;20466;-76
2022/09/16 07:51:33;;;;;;;3.77;2.47;;;13.60;99.90;;;;;;5075949;28;20492;-75
2022/09/16 07:54:03;;;;;;;2.97;2.20;;;13.70;1.00;;;;;;5097320;22;20500;-71
2022/09/16 07:56:33;;;;;;;3.00;1.97;;;13.80;1.00;;;;;;5076164;28;20425;-74
2022/09/16 07:59:01;;;;;;;3.13;1.97;;;13.80;99.90;;;;;;5076087;28;20795;-74
2022/09/16 08:01:29;;;;;;;1.60;1.50;;;13.90;4.30;;;;;;5075921;28;20456;-73
2022/09/16 08:03:58;;;;;;;2.50;2.00;;;14.10;67.80;;;;;;5075843;28;20469;-73
2022/09/16 08:06:27;;;;;;;3.57;2.30;;;14.20;99.90;;;;;;5075633;28;21027;-72
2022/09/16 08:08:56;;;;;;;4.60;1.50;;;14.20;99.90;;;;;;5075690;28;20463;-72
2022/09/16 08:11:25;;;;;;;2.90;2.00;;;14.30;99.90;;;;;;5075485;28;20487;-72
2022/09/16 08:13:52;;;;;;;3.03;1.93;;;14.40;99.90;;;;;;5075421;28;20472;-72
2022/09/16 08:16:20;;;;;;;4.10;1.80;;;14.40;99.90;;;;;;5075566;28;20544;-72
2022/09/16 08:18:49;;;;;;;2.23;2.03;;;14.40;20.00;;;;;;5075263;28;20458;-72
2022/09/16 08:21:17;;;;;;;1.93;1.67;;;14.40;49.40;;;;;;5075458;28;20448;-73
2022/09/16 08:23:44;;;;;;;4.40;1.83;;;14.40;1.00;;;;;;5075359;28;20514;-72
2022/09/16 08:26:13;;;;;;;1.50;1.40;;;14.50;1.00;;;;;;5075403;28;20455;-72
2022/09/16 08:28:42;;;;;;;2.60;2.07;;;14.50;1.00;;;;;;5075365;28;20475;-72
2022/09/16 08:31:10;;;;;;;4.00;2.33;;;14.50;1.00;;;;;;5076125;28;20487;-73
2022/09/16 08:33:39;;;;;;;2.63;1.63;;;14.50;1.00;;;;;;5075907;28;20465;-72
2022/09/16 08:36:10;;;;;;;5.07;3.17;;;14.50;1.00;;;;;;5075484;28;20955;-73
2022/09/16 08:38:37;;;;;;;7.37;2.43;;;14.70;94.70;;;;;;5075469;28;20780;-72
2022/09/16 08:41:15;;;;;;;2.40;2.13;;;14.60;1.00;;;;;;5074835;28;20889;-72
2022/09/16 08:43:48;;;;;;;3.37;2.20;;;14.60;1.00;;;;;;5075064;28;20513;-73
2022/09/16 08:46:20;;;;;;;8.03;1.97;;;14.60;1.00;;;;;;5075797;28;20461;-73
2022/09/16 08:48:54;;;;;;;2.90;1.87;;;14.60;1.00;;;;;;5074867;28;20495;-73
2022/09/16 08:51:23;;;;;;;3.57;1.77;;;14.50;1.00;;;;;;5075041;28;20468;-72
2022/09/16 08:53:58;;;;;;;2.10;1.90;;;14.60;1.00;;;;;;5074445;28;20534;-72
2022/09/16 08:56:30;;;;;;;2.93;2.73;;;14.70;1.00;;;;;;5075156;28;20483;-74
2022/09/16 08:59:01;;;;;;;2.90;1.97;;;14.80;1.00;;;;;;5074953;28;20444;-73
2022/09/16 09:01:34;;;;;;;5.33;1.97;;;14.90;99.90;;;;;;5075248;28;20431;-73
2022/09/16 09:04:02;;;;;;;4.50;1.73;;;15.00;99.90;;;;;;5074006;28;20461;-73
2022/09/16 09:06:47;;;;;;;3.30;2.40;;;15.10;99.90;;;;;;5074165;28;20456;-73
2022/09/16 09:09:24;;;;;;;5.60;2.77;;;15.10;99.90;;;;;;5074826;28;20433;-74
2022/09/16 09:11:59;;;;;;;4.53;1.80;;;15.20;99.90;;;;;;5074473;28;20941;-73
2022/09/16 09:14:41;;;;;;;4.93;3.03;;;15.30;99.90;;;;;;5075576;28;20927;-73
2022/09/16 09:17:16;;;;;;;1.80;1.53;;;15.40;99.90;;;;;;5074809;28;20866;-72
2022/09/16 09:19:55;;;;;;;3.83;1.80;;;15.40;99.90;;;;;;5074175;28;20432;-73
2022/09/16 09:22:43;;;;;;;5.17;2.10;;;15.20;99.90;;;;;;5074218;28;20425;-72
2022/09/16 09:25:25;;;;;;;4.13;2.00;;;15.00;78.90;;;;;;5074368;28;20471;-73
2022/09/16 09:28:07;;;;;;;7.67;2.67;;;15.00;99.90;;;;;;5074237;28;20476;-73
2022/09/16 09:30:40;;;;;;;3.63;1.70;;;15.00;99.90;;;;;;5074417;28;20864;-73
2022/09/16 09:33:19;;;;;;;3.60;1.70;;;14.90;99.90;;;;;;5073749;28;20998;-73
2022/09/16 09:36:02;;;;;;;4.57;1.90;;;15.00;99.90;;;;;;5074534;28;20465;-73
2022/09/16 09:38:50;;;;;;;3.87;1.50;;;15.00;99.90;;;;;;5073690;28;20906;-74
2022/09/16 09:41:20;;;;;;;8.47;1.63;;;15.10;1.00;;;;;;5073732;28;20966;-73
2022/09/16 09:43:53;;;;;;;6.90;2.43;;;15.00;1.00;;;;;;5074180;28;20448;-73
2022/09/16 09:46:30;;;;;;;2.73;2.50;;;15.10;1.00;;;;;;5074568;28;20436;-73
2022/09/16 09:49:02;;;;;;;6.63;1.70;;;15.10;1.00;;;;;;5074754;28;20508;-73
2022/09/16 09:51:34;;;;;;;7.90;2.00;;;15.20;1.00;;;;;;5074773;28;20468;-74
2022/09/16 09:54:05;;;;;;;4.90;2.40;;;15.20;1.00;;;;;;5073632;28;20525;-73
2022/09/16 09:56:35;;;;;;;8.13;1.63;;;15.20;1.00;;;;;;5074094;28;20461;-73
2022/09/16 09:59:19;;;;;;;4.13;2.03;;;15.30;1.00;;;;;;5073688;28;20429;-73
2022/09/16 10:01:52;;;;;;;4.07;2.03;;;15.20;1.00;;;;;;5073173;28;20429;-73
2022/09/16 10:04:19;;;;;;;4.60;1.93;;;15.20;1.00;;;;;;5074054;28;20469;-72
2022/09/16 10:06:46;;;;;;;1.87;1.47;;;15.30;1.00;;;;;;5073477;28;20449;-72
2022/09/16 10:09:17;;;;;;;5.63;2.20;;;15.30;1.00;;;;;;5073678;28;20510;-72
2022/09/16 10:11:48;;;;;;;2.83;1.40;;;15.40;1.00;;;;;;5073538;28;20519;-73
2022/09/16 10:14:24;;;;;;;2.73;1.80;;;16.00;1.00;;;;;;5073628;28;20921;-73
2022/09/16 10:16:53;;;;;;;4.30;1.40;;;15.60;1.00;;;;;;5073645;28;20436;-72
2022/09/16 10:19:22;;;;;;;2.70;1.27;;;15.70;1.00;;;;;;5073447;28;20453;-72
2022/09/16 10:21:52;;;;;;;2.90;1.63;;;16.00;1.00;;;;;;5073772;28;20448;-72
2022/09/16 10:24:32;;;;;;;3.27;1.93;;;15.90;1.00;;;;;;5073354;28;20872;-72
2022/09/16 10:27:00;;;;;;;12.97;2.97;;;16.00;1.00;;;;;;5073385;28;20524;-73
2022/09/16 10:29:28;;;;;;;3.43;1.90;;;16.00;1.00;;;;;;5072997;28;20451;-73
2022/09/16 10:31:58;;;;;;;7.70;2.40;;;16.00;1.00;;;;;;5073078;28;21017;-73
2022/09/16 10:34:29;;;;;;;3.17;1.60;;;15.90;1.00;;;;;;5073053;28;20507;-72
2022/09/16 10:37:00;;;;;;;2.77;1.60;;;16.10;1.00;;;;;;5073785;28;20440;-73
2022/09/16 10:39:29;;;;;;;9.77;2.93;;;16.20;1.00;;;;;;5073257;28;20939;-73
2022/09/16 10:41:57;;;;;;;2.67;1.50;;;16.30;1.00;;;;;;5073261;28;20444;-73
2022/09/16 10:44:27;;;;;;;2.20;1.40;;;16.20;1.00;;;;;;5073488;28;20939;-72
2022/09/16 10:47:01;;;;;;;2.80;1.60;;;16.20;1.00;;;;;;5073136;28;20875;-73
2022/09/16 10:49:37;;;;;;;6.50;2.63;;;16.20;1.00;;;;;;5073194;28;20876;-73
2022/09/16 10:52:17;;;;;;;6.23;1.60;;;16.40;1.00;;;;;;5073064;28;21008;-72
2022/09/16 10:54:45;;;;;;;2.97;1.40;;;16.30;1.00;;;;;;5072629;28;20456;-73
2022/09/16 10:57:26;;;;;;;2.60;1.70;;;16.20;1.00;;;;;;5073525;28;20555;-73
2022/09/16 10:59:57;;;;;;;4.83;1.33;;;16.00;1.00;;;;;;5072948;28;20471;-72
2022/09/16 11:02:43;;;;;;;4.13;2.37;;;15.40;1.00;;;;;;5072792;28;20452;-73
2022/09/16 11:05:12;;;;;;;6.83;1.40;;;15.70;1.00;;;;;;5072990;28;20472;-73
2022/09/16 11:07:48;;;;;;;5.63;1.90;;;15.70;1.00;;;;;;5072897;28;20458;-73
2022/09/16 11:10:24;;;;;;;7.63;2.13;;;15.70;1.00;;;;;;5072992;28;20432;-72
2022/09/16 11:13:21;;;;;;;2.90;1.30;;;15.70;1.00;;;;;;5075059;28;20516;-72
2022/09/16 11:16:13;;;;;;;2.20;1.20;;;15.90;1.00;;;;;;5076759;28;20895;-73
2022/09/16 11:18:52;;;;;;;2.03;1.43;;;16.10;1.00;;;;;;5077060;28;20429;-72
2022/09/16 11:21:35;;;;;;;3.43;1.37;;;16.40;1.00;;;;;;5076789;28;20436;-72
2022/09/16 11:24:25;;;;;;;3.80;1.27;;;16.60;1.00;;;;;;5076420;28;20871;-72
2022/09/16 11:27:02;;;;;;;6.20;2.50;;;16.80;1.00;;;;;;5067618;28;21003;-73
2022/09/16 11:29:45;;;;;;;3.57;1.57;;;17.00;1.00;;;;;;5076921;28;20481;-72
2022/09/16 11:32:19;;;;;;;4.33;1.67;;;17.10;1.00;;;;;;5076227;28;20464;-73
2022/09/16 11:35:09;;;;;;;7.97;1.50;;;17.00;1.00;;;;;;5075993;28;20923;-73
2022/09/16 11:37:43;;;;;;;6.73;1.33;;;16.70;1.00;;;;;;5076813;28;20465;-73
2022/09/16 11:40:22;;;;;;;3.87;1.13;;;16.70;1.00;;;;;;5076023;28;20916;-73
2022/09/16 11:42:57;;;;;;;3.70;1.60;;;16.80;1.00;;;;;;5076483;28;20510;-73
2022/09/16 11:45:39;;;;;;;3.80;1.60;;;16.80;1.00;;;;;;5076916;28;20432;-74
2022/09/16 11:48:30;;;;;;;4.97;1.30;;;17.00;1.00;;;;;;5078509;28;20753;-73
2022/09/16 11:51:08;;;;;;;2.23;1.30;;;17.10;1.00;;;;;;5078992;28;20479;-73
2022/09/16 11:53:46;;;;;;;9.67;3.60;;;17.20;1.00;;;;;;5081291;28;20537;-73
2022/09/16 11:56:16;;;;;;;2.00;1.03;;;17.20;1.00;;;;;;5083791;28;20439;-73
2022/09/16 11:58:47;;;;;;;2.30;1.27;;;17.20;1.00;;;;;;5079452;28;20429;-73
2022/09/16 12:01:26;;;;;;;1.97;1.30;;;17.10;1.00;;;;;;5079503;28;20432;-74
2022/09/16 12:03:59;;;;;;;4.13;1.90;;;17.00;1.00;;;;;;5078207;28;21013;-74
2022/09/16 12:06:31;;;;;;;4.43;1.97;;;16.90;1.00;;;;;;5077511;28;20428;-74
2022/09/16 12:09:03;;;;;;;2.37;1.53;;;16.90;1.00;;;;;;5077626;28;20433;-73
2022/09/16 12:11:35;;;;;;;2.50;1.27;;;17.00;1.00;;;;;;5076403;28;20425;-73
2022/09/16 12:14:09;;;;;;;2.43;1.30;;;17.10;1.00;;;;;;5075748;28;20855;-73
2022/09/16 12:16:48;;;;;;;4.27;1.47;;;17.60;1.00;;;;;;5075937;28;20424;-74
2022/09/16 12:19:25;;;;;;;5.27;1.33;;;17.30;1.00;;;;;;5076615;28;20448;-73
2022/09/16 12:21:59;;;;;;;3.10;1.43;;;17.30;1.00;;;;;;5078576;28;20839;-73
2022/09/16 12:24:32;;;;;;;6.40;1.67;;;17.30;1.00;;;;;;5074410;28;20468;-73
2022/09/16 12:27:05;;;;;;;4.13;1.20;;;17.30;1.00;;;;;;5075468;28;20803;-73
2022/09/16 12:29:42;;;;;;;4.90;1.53;;;17.30;1.00;;;;;;5075660;28;20498;-73
2022/09/16 12:32:12;;;;;;;4.13;1.10;;;17.30;1.00;;;;;;5075232;28;20471;-73
2022/09/16 12:34:44;;;;;;;3.43;1.37;;;17.40;1.00;;;;;;5075415;28;20479;-74
2022/09/16 12:37:26;;;;;;;1.40;0.90;;;17.40;1.00;;;;;;5075167;28;20527;-72
2022/09/16 12:39:53;;;;;;;2.07;1.00;;;17.50;1.00;;;;;;5075677;28;20437;-72
2022/09/16 12:42:50;;;;;;;5.03;1.37;;;17.70;1.00;;;;;;5075241;28;20498;-72
2022/09/16 12:45:41;;;;;;;2.47;1.20;;;17.70;99.90;;;;;;5075192;28;20437;-73
2022/09/16 12:48:31;;;;;;;4.37;1.60;;;17.80;99.90;;;;;;5075366;28;20429;-73
2022/09/16 12:51:16;;;;;;;7.80;2.47;;;17.90;99.90;;;;;;5075156;28;20463;-72
2022/09/16 12:54:00;;;;;;;1.47;1.00;;;18.00;99.90;;;;;;5074163;28;21056;-73
2022/09/16 12:56:40;;;;;;;3.57;1.60;;;17.90;99.90;;;;;;5075786;28;20528;-73
2022/09/16 12:59:24;;;;;;;3.17;1.20;;;17.80;99.90;;;;;;5074644;28;20917;-73
2022/09/16 13:01:54;;;;;;;1.90;1.40;;;17.70;1.00;;;;;;5075624;28;20479;-73
2022/09/16 13:04:25;;;;;;;2.93;1.10;;;17.40;99.90;;;;;;5074531;28;20465;-73
2022/09/16 13:06:55;;;;;;;3.60;2.80;;;17.30;99.90;;;;;;5074564;28;20547;-73
2022/09/16 13:09:25;;;;;;;8.20;5.57;;;17.20;99.90;;;;;;5074538;28;20460;-74
2022/09/16 13:11:54;;;;;;;3.20;1.30;;;17.20;99.90;;;;;;5074453;28;20433;-74
2022/09/16 13:14:24;;;;;;;1.77;1.03;;;17.30;99.90;;;;;;5074425;28;20492;-73